Time;durP1;ratioP1;P1;durP2;ratioP2;P2;SDS_P1;SDS_P2;PMS_P1;PMS_P2;Temp;Humidity;BMP_temperature;BMP_pressure;BME280_temperature;BME280_humidity;BME280_pressure;Samples;Min_cycle;Max_cycle;Signal;HPM_P1;HPM_P2
2023/10/14 00:01:13;;;;;;;17.65;6.75;;;;;;;21.38;71.16;98690.75;5093386;28;20098;-48
2023/10/14 00:03:45;;;;;;;10.75;5.15;;;;;;;21.37;70.97;98683.81;5093404;28;20028;-48
2023/10/14 00:06:13;;;;;;;11.07;5.50;;;;;;;21.42;71.01;98681.13;5093204;28;20043;-48
2023/10/14 00:11:16;;;;;;;14.68;5.35;;;;;;;21.37;71.07;98675.78;5093285;28;20493;-48
2023/10/14 00:13:43;;;;;;;16.00;5.50;;;;;;;21.29;71.43;98693.19;5093184;28;20111;-48
2023/10/14 00:16:59;;;;;;;11.82;5.28;;;;;;;21.20;71.90;98682.25;5093126;28;20036;-48
2023/10/14 00:19:09;;;;;;;12.48;6.05;;;;;;;21.20;72.21;98700.13;5088759;28;20101;-48
2023/10/14 00:21:36;;;;;;;9.90;5.50;;;;;;;21.19;72.21;98687.84;5093120;28;20107;-48
2023/10/14 00:24:05;;;;;;;10.80;6.10;;;;;;;21.22;72.24;98650.75;5092976;28;20043;-48
2023/10/14 00:26:31;;;;;;;12.65;6.50;;;;;;;21.30;71.88;98726.81;5092794;28;20024;-47
2023/10/14 00:29:16;;;;;;;9.68;5.35;;;;;;;21.28;72.02;98707.59;5092918;28;20107;-48
2023/10/14 00:31:49;;;;;;;8.73;5.20;;;;;;;21.31;72.34;98691.06;5092824;28;20063;-47
2023/10/14 00:34:17;;;;;;;10.48;5.88;;;;;;;21.25;72.43;98694.78;5092792;28;20069;-48
2023/10/14 00:36:43;;;;;;;17.00;5.53;;;;;;;21.25;72.22;98686.75;5092716;28;20020;-48
2023/10/14 00:39:12;;;;;;;14.10;5.72;;;;;;;21.22;72.54;98698.00;5091472;28;20035;-48
2023/10/14 00:41:44;;;;;;;13.65;5.07;;;;;;;21.26;72.75;98709.72;5092728;28;20095;-48
2023/10/14 00:44:11;;;;;;;11.73;5.70;;;;;;;21.27;72.49;98681.97;5092713;28;20035;-48
2023/10/14 00:46:42;;;;;;;16.27;5.60;;;;;;;21.35;72.11;98689.44;5092477;28;20063;-48
2023/10/14 00:49:12;;;;;;;17.98;5.32;;;;;;;21.33;71.87;98689.69;5091344;28;20051;-48
2023/10/14 00:51:44;;;;;;;19.70;6.38;;;;;;;21.42;71.92;98700.63;5092481;28;20081;-48
2023/10/14 00:54:12;;;;;;;15.95;5.07;;;;;;;21.44;71.87;98687.81;5092515;28;20055;-48
2023/10/14 00:56:42;;;;;;;14.10;5.88;;;;;;;21.40;71.64;98672.59;5092402;28;20024;-47
2023/10/14 00:59:09;;;;;;;14.65;5.25;;;;;;;21.39;72.12;98671.00;5092413;28;20104;-48
2023/10/14 01:04:21;;;;;;;11.13;5.25;;;;;;;21.45;72.21;98691.28;5092371;28;20089;-48
2023/10/14 01:07:12;;;;;;;13.38;5.50;;;;;;;21.43;72.38;98680.09;5092157;28;20025;-48
2023/10/14 01:12:25;;;;;;;12.63;5.63;;;;;;;21.42;72.46;98652.56;5092200;28;20047;-48
2023/10/14 01:14:52;;;;;;;11.75;5.70;;;;;;;21.39;72.47;98671.00;5092160;28;20115;-48
2023/10/14 01:17:31;;;;;;;12.82;5.65;;;;;;;21.40;72.95;98661.91;5090765;28;20031;-48
2023/10/14 01:22:43;;;;;;;11.80;5.85;;;;;;;21.36;73.19;98659.00;5092101;28;20036;-48
2023/10/14 01:25:15;;;;;;;13.65;5.68;;;;;;;21.35;72.74;98655.53;5092046;28;20027;-48
2023/10/14 01:27:44;;;;;;;13.70;5.13;;;;;;;21.30;73.09;98642.19;5091959;28;20062;-48
2023/10/14 01:30:26;;;;;;;10.63;5.55;;;;;;;21.27;73.27;98639.25;5091966;28;20413;-48
2023/10/14 01:32:56;;;;;;;16.90;5.43;;;;;;;21.34;73.07;98632.56;5091988;28;20071;-48
2023/10/14 01:37:48;;;;;;;10.65;5.70;;;;;;;21.37;72.95;98644.59;5091873;28;20032;-48
2023/10/14 01:43:15;;;;;;;12.63;5.43;;;;;;;21.32;72.64;98655.25;5090826;28;20032;-48
2023/10/14 01:45:47;;;;;;;11.40;5.32;;;;;;;21.40;72.92;98651.25;5091421;28;20401;-48
2023/10/14 01:48:14;;;;;;;11.80;5.63;;;;;;;21.39;72.68;98645.09;5091881;28;20062;-48
2023/10/14 01:50:57;;;;;;;14.95;5.95;;;;;;;21.33;73.17;98659.53;5092005;28;20432;-48
2023/10/14 01:53:28;;;;;;;14.55;5.93;;;;;;;21.25;73.74;98668.91;5092078;28;20038;-48
2023/10/14 01:55:57;;;;;;;15.13;6.00;;;;;;;21.06;74.91;98665.19;5090441;28;20396;-48
2023/10/14 01:58:29;;;;;;;13.90;6.72;;;;;;;20.85;75.89;98654.56;5091634;28;20074;-47
2023/10/14 02:00:58;;;;;;;11.13;5.43;;;;;;;20.77;77.03;98657.75;5090419;28;20032;-47
2023/10/14 02:03:24;;;;;;;16.10;6.18;;;;;;;20.67;77.91;98645.22;5091648;28;20440;-48
2023/10/14 02:05:53;;;;;;;13.68;6.47;;;;;;;20.53;79.02;98644.94;5090213;28;20502;-47
2023/10/14 02:08:23;;;;;;;11.40;6.22;;;;;;;20.37;80.94;98655.84;5091909;28;20032;-47
2023/10/14 02:10:50;;;;;;;15.05;6.50;;;;;;;20.20;82.36;98656.88;5091868;28;20021;-47
2023/10/14 02:13:22;;;;;;;13.23;6.18;;;;;;;20.05;83.76;98649.66;5091560;28;20020;-46
2023/10/14 02:15:52;;;;;;;16.10;6.70;;;;;;;19.91;85.98;98645.91;5091580;28;20031;-46
2023/10/14 02:18:22;;;;;;;12.90;7.97;;;;;;;19.75;88.23;98645.84;5095202;28;20043;-46
2023/10/14 02:20:58;;;;;;;16.30;8.07;;;;;;;19.65;90.76;98656.44;5094131;28;20505;-46
2023/10/14 02:23:24;;;;;;;;;;;;;;;19.60;92.93;98650.28;5094606;28;20024;-46
2023/10/14 02:25:55;;;;;;;19.83;8.57;;;;;;;19.52;93.93;98655.06;5093938;28;19916;-46
2023/10/14 02:28:39;;;;;;;13.05;7.80;;;;;;;19.47;94.64;98665.66;5095621;28;20036;-46
2023/10/14 02:31:17;;;;;;;14.65;7.45;;;;;;;19.39;96.54;98652.06;5095322;28;20024;-46
2023/10/14 02:33:47;;;;;;;15.48;7.50;;;;;;;19.36;96.90;98648.06;5095279;28;20031;-46
2023/10/14 02:36:17;;;;;;;14.65;8.40;;;;;;;19.33;97.53;98649.34;5093883;28;20047;-46
2023/10/14 02:38:53;;;;;;;17.75;8.52;;;;;;;19.28;98.61;98649.34;5093807;28;20109;-45
2023/10/14 02:41:26;;;;;;;14.27;8.52;;;;;;;19.30;99.79;98657.06;5095062;28;20504;-45
2023/10/14 02:44:28;;;;;;;12.73;7.82;;;;;;;19.32;100.00;98655.75;5095092;28;20031;-45
2023/10/14 02:46:47;;;;;;;21.00;8.02;;;;;;;19.30;100.00;98668.50;5093574;28;20043;-45
2023/10/14 02:49:19;;;;;;;14.55;8.57;;;;;;;19.28;100.00;98646.69;5093539;28;20031;-46
2023/10/14 02:51:45;;;;;;;15.55;8.25;;;;;;;19.29;100.00;98650.13;5093641;28;20023;-46
2023/10/14 02:54:33;;;;;;;14.88;7.88;;;;;;;19.32;100.00;98652.31;5094781;28;20123;-46
2023/10/14 02:57:00;;;;;;;24.77;9.60;;;;;;;19.30;100.00;98652.56;5093488;28;20028;-45
2023/10/14 02:59:44;;;;;;;18.92;8.15;;;;;;;19.26;100.00;98659.44;5094659;28;20025;-45
2023/10/14 03:02:15;;;;;;;18.67;8.93;;;;;;;19.24;100.00;98656.25;5094580;28;20028;-45
2023/10/14 03:10:27;;;;;;;15.52;8.23;;;;;;;19.12;100.00;98653.78;5094513;28;20051;-45
2023/10/14 03:12:57;;;;;;;12.13;8.00;;;;;;;19.11;100.00;98640.72;5094429;28;20024;-44
2023/10/14 03:15:23;;;;;;;20.20;7.72;;;;;;;19.09;100.00;98638.31;5094386;28;20040;-44
2023/10/14 03:17:58;;;;;;;15.52;8.57;;;;;;;19.14;100.00;98646.34;5094077;28;20028;-45
2023/10/14 03:23:23;;;;;;;19.38;8.50;;;;;;;19.22;100.00;98631.75;5094257;28;20062;-44
2023/10/14 03:25:54;;;;;;;14.15;8.43;;;;;;;19.20;100.00;98638.41;5094226;28;20485;-45
2023/10/14 03:28:24;;;;;;;19.63;8.52;;;;;;;19.21;100.00;98624.81;5091927;28;20069;-45
2023/10/14 03:31:01;;;;;;;17.85;9.63;;;;;;;19.25;100.00;98633.88;5076394;28;20094;-45
2023/10/14 03:33:29;;;;;;;20.85;8.57;;;;;;;19.29;100.00;98642.94;5092766;28;20058;-45
2023/10/14 03:35:57;;;;;;;16.88;7.85;;;;;;;19.31;100.00;98638.16;5093929;28;20081;-46
2023/10/14 03:46:11;;;;;;;19.60;7.95;;;;;;;19.47;100.00;98639.03;5092611;28;20103;-45
2023/10/14 03:48:47;;;;;;;18.35;8.07;;;;;;;19.51;100.00;98639.34;5075633;28;20024;-46
2023/10/14 03:51:27;;;;;;;22.00;8.80;;;;;;;19.58;100.00;98629.25;5092438;28;20115;-46
2023/10/14 03:54:08;;;;;;;17.88;8.40;;;;;;;19.66;100.00;98630.59;5093725;28;20052;-46
2023/10/14 03:56:35;;;;;;;16.17;7.28;;;;;;;19.72;100.00;98638.38;5093581;28;20077;-46
2023/10/14 03:59:03;;;;;;;18.17;7.82;;;;;;;19.71;100.00;98636.78;5093522;28;20073;-46
2023/10/14 04:01:43;;;;;;;19.65;7.75;;;;;;;19.77;100.00;98632.28;5093534;28;20023;-46
2023/10/14 04:04:18;;;;;;;15.73;6.93;;;;;;;19.83;100.00;98639.22;5077206;28;20046;-45
2023/10/14 04:07:01;;;;;;;12.07;7.13;;;;;;;19.82;99.75;98645.63;5092051;28;20493;-45
2023/10/14 04:09:38;;;;;;;16.77;7.18;;;;;;;19.84;100.00;98632.84;5093367;28;20031;-46
2023/10/14 04:12:09;;;;;;;17.67;6.78;;;;;;;19.88;99.23;98638.41;5092096;28;20016;-45
2023/10/14 04:14:40;;;;;;;17.98;7.15;;;;;;;19.95;99.97;98633.66;5093286;28;20031;-45
2023/10/14 04:17:10;;;;;;;13.40;6.70;;;;;;;20.02;99.31;98636.88;5093212;28;20105;-45
2023/10/14 04:19:46;;;;;;;11.30;6.85;;;;;;;20.08;99.01;98637.66;5091636;28;20041;-45
2023/10/14 04:30:22;;;;;;;17.13;6.95;;;;;;;20.23;98.58;98628.91;5092952;28;20031;-45
2023/10/14 04:33:16;;;;;;;19.35;8.40;;;;;;;20.28;96.24;98643.06;5093009;28;20413;-45
2023/10/14 04:35:36;;;;;;;15.63;7.88;;;;;;;20.33;97.39;98623.59;5090526;28;20032;-45
2023/10/14 04:38:12;;;;;;;14.13;7.28;;;;;;;20.36;97.15;98633.72;5092493;28;20510;-45
2023/10/14 04:40:38;;;;;;;13.40;7.43;;;;;;;20.42;96.69;98629.19;5092773;28;20085;-46
2023/10/14 04:45:52;;;;;;;15.32;6.85;;;;;;;20.44;94.54;98630.50;5091614;28;20035;-45
2023/10/14 04:48:28;;;;;;;18.05;9.38;;;;;;;20.46;94.89;98639.03;5091514;28;20028;-47
2023/10/14 04:50:57;;;;;;;12.45;7.40;;;;;;;20.51;96.00;98631.06;5092553;28;20039;-45
2023/10/14 04:53:26;;;;;;;16.33;6.80;;;;;;;20.61;95.75;98626.84;5091186;28;20070;-46
2023/10/14 04:55:53;;;;;;;19.70;7.80;;;;;;;20.62;94.64;98623.09;5092466;28;20521;-45
2023/10/14 04:58:32;;;;;;;11.80;6.95;;;;;;;20.61;92.62;98630.28;5091135;28;20367;-45
2023/10/14 05:01:00;;;;;;;13.98;6.50;;;;;;;20.59;94.03;98639.63;5092706;28;20032;-45
2023/10/14 05:03:30;;;;;;;13.77;7.13;;;;;;;20.61;94.68;98643.63;5091027;28;20099;-45
2023/10/14 05:05:56;;;;;;;14.60;7.70;;;;;;;20.67;93.82;98634.56;5092576;28;20016;-45
2023/10/14 05:08:24;;;;;;;12.07;6.50;;;;;;;20.67;92.71;98633.75;5092294;28;20386;-45
2023/10/14 05:10:51;;;;;;;13.63;7.05;;;;;;;20.65;90.40;98635.91;5092301;28;20489;-45
2023/10/14 05:13:37;;;;;;;13.30;7.35;;;;;;;20.66;92.48;98637.50;5092238;28;20028;-45
2023/10/14 05:16:16;;;;;;;14.82;7.65;;;;;;;20.71;93.25;98637.50;5092225;28;20027;-45
2023/10/14 05:21:43;;;;;;;13.65;7.50;;;;;;;20.70;89.93;98623.34;5092128;28;20102;-45
2023/10/14 05:24:10;;;;;;;12.32;7.10;;;;;;;20.71;90.02;98632.16;5092089;28;20055;-46
2023/10/14 05:26:46;;;;;;;16.27;7.20;;;;;;;20.78;89.40;98635.34;5090634;28;20336;-45
2023/10/14 05:29:19;;;;;;;16.20;7.72;;;;;;;20.80;87.61;98625.19;5090789;28;20032;-46
2023/10/14 05:31:50;;;;;;;14.80;7.88;;;;;;;20.80;87.10;98635.88;5091889;28;20116;-45
2023/10/14 05:34:21;;;;;;;13.48;7.32;;;;;;;20.76;87.68;98629.47;5090553;28;20016;-45
2023/10/14 05:36:52;;;;;;;13.20;7.88;;;;;;;20.73;86.83;98632.69;5091853;28;20485;-45
2023/10/14 05:39:20;;;;;;;23.25;7.53;;;;;;;20.72;86.73;98644.41;5091919;28;20023;-46
2023/10/14 05:41:48;;;;;;;17.08;7.35;;;;;;;20.74;86.31;98636.94;5090637;28;20497;-45
2023/10/14 05:44:14;;;;;;;13.98;6.68;;;;;;;20.77;84.89;98646.31;5091835;28;20020;-46
2023/10/14 05:46:44;;;;;;;14.65;7.25;;;;;;;20.71;84.87;98640.97;5090387;28;20054;-45
2023/10/14 05:49:10;;;;;;;17.70;7.63;;;;;;;20.73;84.97;98638.81;5091790;28;20020;-46
2023/10/14 05:51:35;;;;;;;18.98;7.43;;;;;;;20.82;85.08;98646.28;5094401;28;20504;-47
2023/10/14 05:54:02;;;;;;;17.65;6.72;;;;;;;20.80;83.99;98646.53;5095933;28;20028;-47
2023/10/14 05:56:28;;;;;;;18.45;7.93;;;;;;;20.78;84.42;98661.22;5095864;28;20032;-47
2023/10/14 05:58:54;;;;;;;16.15;7.93;;;;;;;20.76;84.17;98656.16;5094529;28;20028;-47
2023/10/14 06:01:20;;;;;;;13.60;6.95;;;;;;;20.73;83.91;98648.69;5095756;28;20024;-47
2023/10/14 06:03:47;;;;;;;12.85;7.30;;;;;;;20.70;82.83;98649.22;5095758;28;20561;-47
2023/10/14 06:06:16;;;;;;;21.45;7.45;;;;;;;20.68;83.64;98646.81;5095581;28;20395;-47
2023/10/14 06:08:46;;;;;;;14.32;7.50;;;;;;;20.68;83.22;98657.47;5095620;28;20020;-47
2023/10/14 06:11:13;;;;;;;13.48;7.32;;;;;;;20.67;82.96;98653.22;5095916;28;20028;-47
2023/10/14 06:13:39;;;;;;;13.23;7.25;;;;;;;20.69;83.20;98647.63;5094366;28;20024;-47
2023/10/14 06:16:09;;;;;;;12.65;6.85;;;;;;;20.69;83.17;98640.44;5095486;28;20110;-47
2023/10/14 06:18:39;;;;;;;14.63;7.18;;;;;;;20.72;83.38;98642.53;5095245;28;20036;-47
2023/10/14 06:21:07;;;;;;;15.55;7.60;;;;;;;20.78;82.95;98654.00;5095407;28;20028;-47
2023/10/14 06:23:33;;;;;;;17.25;7.38;;;;;;;20.81;83.29;98655.38;5093929;28;20031;-47
2023/10/14 06:25:58;;;;;;;15.30;7.40;;;;;;;20.90;82.12;98661.75;5095284;28;20024;-47
2023/10/14 06:28:25;;;;;;;16.20;6.55;;;;;;;20.98;81.88;98668.41;5095259;28;20055;-47
2023/10/14 06:30:51;;;;;;;17.02;7.38;;;;;;;21.04;82.10;98670.00;5095104;28;20036;-47
2023/10/14 06:33:17;;;;;;;13.70;7.05;;;;;;;21.14;81.67;98660.09;5095224;28;20533;-47
2023/10/14 06:35:43;;;;;;;16.90;7.05;;;;;;;21.18;79.61;98679.03;5093825;28;20055;-47
2023/10/14 06:38:10;;;;;;;12.07;6.82;;;;;;;21.16;80.81;98675.84;5093767;28;20028;-47
2023/10/14 06:40:36;;;;;;;16.02;7.00;;;;;;;21.19;80.52;98674.50;5093780;28;20028;-47
2023/10/14 06:43:13;;;;;;;13.40;6.60;;;;;;;21.27;80.58;98690.78;5093713;28;20020;-47
2023/10/14 06:45:39;;;;;;;17.10;7.32;;;;;;;21.41;79.42;98688.34;5095078;28;20031;-47
2023/10/14 06:48:12;;;;;;;16.98;6.80;;;;;;;21.43;80.11;98680.91;5093507;28;20025;-47
2023/10/14 06:50:41;;;;;;;15.50;6.63;;;;;;;21.58;80.09;98706.75;5094936;28;20094;-47
2023/10/14 06:53:10;;;;;;;16.92;7.63;;;;;;;21.69;78.27;98696.81;5094818;28;20020;-47
2023/10/14 06:55:37;;;;;;;13.45;6.72;;;;;;;21.64;78.02;98700.31;5093503;28;20027;-47
2023/10/14 06:58:05;;;;;;;13.95;6.72;;;;;;;21.59;77.11;98705.69;5094674;28;20035;-47
2023/10/14 07:00:32;;;;;;;17.63;7.88;;;;;;;21.47;77.98;98708.66;5094680;28;20397;-47
2023/10/14 07:02:59;;;;;;;21.45;7.55;;;;;;;21.45;78.30;98708.13;5093233;28;20043;-47
2023/10/14 07:05:29;;;;;;;12.90;7.80;;;;;;;21.48;77.72;98712.91;5093268;28;20032;-47
2023/10/14 07:07:57;;;;;;;13.82;7.65;;;;;;;21.45;78.04;98716.13;5094576;28;20481;-47
2023/10/14 07:10:32;;;;;;;12.18;7.18;;;;;;;21.42;77.92;98731.88;5094488;28;20036;-47
2023/10/14 07:12:58;;;;;;;16.10;7.63;;;;;;;21.37;78.63;98727.34;5094756;28;20056;-47
2023/10/14 07:15:37;;;;;;;13.60;7.43;;;;;;;21.40;78.02;98724.13;5093015;28;20056;-47
2023/10/14 07:18:02;;;;;;;15.15;7.50;;;;;;;21.41;78.43;98738.25;5094420;28;20422;-47
2023/10/14 07:20:31;;;;;;;16.95;7.45;;;;;;;21.37;78.86;98723.84;5094350;28;20058;-47
2023/10/14 07:23:02;;;;;;;18.08;8.00;;;;;;;21.32;78.71;98730.00;5094457;28;20035;-47
2023/10/14 07:25:32;;;;;;;12.43;7.30;;;;;;;21.29;78.94;98728.69;5094519;28;20448;-47
2023/10/14 07:27:59;;;;;;;14.68;8.20;;;;;;;21.26;78.34;98731.88;5094141;28;20020;-47
2023/10/14 07:30:27;;;;;;;15.85;8.13;;;;;;;21.23;78.82;98739.63;5094047;28;20020;-47
2023/10/14 07:32:55;;;;;;;15.00;7.13;;;;;;;21.20;78.72;98735.63;5092801;28;20032;-47
2023/10/14 07:35:21;;;;;;;12.98;7.85;;;;;;;21.22;78.93;98746.03;5093958;28;20012;-48
2023/10/14 07:37:49;;;;;;;16.10;7.80;;;;;;;21.27;79.06;98748.69;5094050;28;20205;-47
2023/10/14 07:40:22;;;;;;;13.38;8.10;;;;;;;21.26;78.38;98739.88;5093937;28;20091;-47
2023/10/14 07:43:04;;;;;;;19.65;8.57;;;;;;;21.26;78.97;98739.88;5092686;28;20494;-47
2023/10/14 07:45:33;;;;;;;10.02;7.50;;;;;;;21.33;78.62;98745.75;5092725;28;20027;-47
2023/10/14 07:48:08;;;;;;;17.63;8.45;;;;;;;21.36;78.50;98744.41;5093658;28;20027;-47
2023/10/14 07:50:34;;;;;;;;;;;;;;;21.44;78.91;98743.91;5094132;28;20133;-47
2023/10/14 07:53:12;;;;;;;14.93;7.85;;;;;;;21.55;77.40;98758.06;5092532;28;19912;-47
2023/10/14 07:55:42;;;;;;;13.60;7.55;;;;;;;21.63;77.82;98751.31;5093906;28;20043;-47
2023/10/14 07:58:09;;;;;;;15.90;8.18;;;;;;;21.71;78.09;98742.75;5092282;28;20082;-47
2023/10/14 08:00:40;;;;;;;12.32;7.40;;;;;;;21.81;76.32;98756.09;5092312;28;20485;-47
2023/10/14 08:03:14;;;;;;;12.10;6.65;;;;;;;21.86;76.93;98753.41;5093492;28;20102;-47
2023/10/14 08:05:41;;;;;;;11.37;7.37;;;;;;;21.95;76.69;98753.63;5093789;28;20404;-47
2023/10/14 08:08:09;;;;;;;18.10;7.90;;;;;;;21.96;76.33;98749.09;5091999;28;20281;-47
2023/10/14 08:10:45;;;;;;;14.88;7.22;;;;;;;21.99;76.06;98753.91;5093573;28;20443;-47
2023/10/14 08:13:12;;;;;;;12.80;7.10;;;;;;;21.98;75.93;98754.97;5091353;28;20138;-47
2023/10/14 08:15:40;;;;;;;13.70;7.20;;;;;;;21.94;75.31;98760.06;5093193;28;20020;-48
2023/10/14 08:18:06;;;;;;;14.52;7.32;;;;;;;21.88;76.00;98774.50;5091734;28;20378;-48
2023/10/14 08:20:36;;;;;;;14.57;7.05;;;;;;;21.85;75.91;98764.34;5093169;28;20031;-47
2023/10/14 08:23:09;;;;;;;13.93;7.35;;;;;;;21.83;76.53;98767.31;5092105;28;20516;-48
2023/10/14 08:25:41;;;;;;;13.80;8.35;;;;;;;21.87;76.31;98773.72;5092924;28;20035;-47
2023/10/14 08:28:08;;;;;;;18.40;13.15;;;;;;;21.93;76.77;98766.47;5092930;28;20385;-47
2023/10/14 08:30:45;;;;;;;22.08;15.32;;;;;;;21.96;75.73;98778.50;5092927;28;20093;-47
2023/10/14 08:33:15;;;;;;;22.98;10.35;;;;;;;21.89;75.70;98782.25;5092970;28;20020;-47
2023/10/14 08:35:44;;;;;;;16.27;9.27;;;;;;;21.87;75.95;98771.06;5091538;28;20028;-47
2023/10/14 08:38:11;;;;;;;16.27;7.90;;;;;;;21.83;76.05;98766.50;5091494;28;20024;-47
2023/10/14 08:40:39;;;;;;;13.75;7.47;;;;;;;21.84;76.72;98770.78;5092709;28;20032;-47
2023/10/14 08:43:10;;;;;;;14.15;7.32;;;;;;;21.88;75.79;98774.50;5092604;28;20020;-47
2023/10/14 08:45:41;;;;;;;19.98;8.18;;;;;;;21.85;75.86;98765.19;5091402;28;20081;-48
2023/10/14 08:48:17;;;;;;;22.05;9.70;;;;;;;21.89;76.50;98768.91;5092891;28;20792;-47
2023/10/14 08:50:45;;;;;;;15.88;7.35;;;;;;;21.93;75.58;98782.50;5092598;28;20032;-47
2023/10/14 08:53:13;;;;;;;13.20;7.13;;;;;;;21.91;75.06;98768.63;5092578;28;20027;-47
2023/10/14 08:55:40;;;;;;;15.02;6.95;;;;;;;21.88;75.23;98772.63;5092464;28;20110;-47
2023/10/14 08:58:07;;;;;;;11.38;7.47;;;;;;;21.89;74.58;98782.25;5092491;28;20439;-47
2023/10/14 09:00:37;;;;;;;11.05;6.72;;;;;;;21.87;74.64;98776.41;5091067;28;20107;-47
2023/10/14 09:03:07;;;;;;;11.13;6.65;;;;;;;21.89;74.20;98770.75;5092337;28;20104;-47
2023/10/14 09:05:40;;;;;;;16.95;7.32;;;;;;;21.86;73.83;98763.31;5091021;28;20039;-47
2023/10/14 09:08:11;;;;;;;16.50;6.63;;;;;;;21.91;73.77;98773.94;5090966;28;20065;-47
2023/10/14 09:10:37;;;;;;;10.05;6.63;;;;;;;21.89;73.57;98776.09;5092240;28;20028;-48
2023/10/14 09:13:09;;;;;;;10.80;6.85;;;;;;;21.86;73.05;98771.31;5092204;28;20020;-47
2023/10/14 09:15:40;;;;;;;15.07;7.75;;;;;;;21.83;73.02;98769.19;5090901;28;20108;-47
2023/10/14 09:18:19;;;;;;;15.75;8.05;;;;;;;21.78;73.39;98769.19;5090610;28;20055;-48
2023/10/14 09:20:56;;;;;;;15.18;6.70;;;;;;;21.91;72.41;98760.59;5092057;28;20059;-47
2023/10/14 09:23:24;;;;;;;11.00;7.35;;;;;;;22.01;72.57;98773.91;5091984;28;20040;-47
2023/10/14 09:25:58;;;;;;;13.27;6.65;;;;;;;22.10;72.52;98776.84;5091110;28;20016;-47
2023/10/14 09:28:29;;;;;;;10.48;6.65;;;;;;;22.27;71.82;98777.31;5090673;28;20073;-47
2023/10/14 09:30:56;;;;;;;10.95;5.93;;;;;;;22.50;71.22;98783.09;5091933;28;20370;-47
2023/10/14 09:33:31;;;;;;;10.60;5.60;;;;;;;22.79;70.26;98782.38;5090603;28;20020;-47
2023/10/14 09:36:04;;;;;;;12.60;5.93;;;;;;;23.02;68.72;98779.03;5092281;28;20027;-47
2023/10/14 09:38:32;;;;;;;11.27;6.13;;;;;;;23.26;67.26;98787.13;5090776;28;20043;-47
2023/10/14 09:41:02;;;;;;;9.57;4.95;;;;;;;23.47;65.03;98792.31;5092090;28;20024;-47
2023/10/14 09:43:29;;;;;;;9.93;5.65;;;;;;;23.55;65.28;98777.50;5091829;28;20035;-47
2023/10/14 09:45:59;;;;;;;14.25;5.95;;;;;;;23.61;64.49;98789.75;5090430;28;20505;-47
2023/10/14 09:48:31;;;;;;;8.05;5.25;;;;;;;23.73;64.32;98782.94;5090875;28;20435;-47
2023/10/14 09:51:00;;;;;;;13.15;5.95;;;;;;;23.78;63.21;98783.97;5092044;28;20408;-48
2023/10/14 09:53:32;;;;;;;11.60;5.35;;;;;;;23.86;62.56;98781.47;5091782;28;20054;-48
2023/10/14 09:56:08;;;;;;;12.80;5.75;;;;;;;24.16;62.23;98786.75;5091631;28;20032;-47
2023/10/14 09:58:42;;;;;;;13.50;4.88;;;;;;;24.41;60.57;98774.91;5090408;28;20437;-47
2023/10/14 10:01:16;;;;;;;11.48;5.57;;;;;;;24.53;59.93;98778.00;5091658;28;20527;-48
2023/10/14 10:03:51;;;;;;;10.43;5.67;;;;;;;24.63;59.40;98774.34;5090399;28;20042;-47
2023/10/14 10:07:10;;;;;;;12.75;5.20;;;;;;;24.91;58.54;98780.63;5090495;28;20613;-48
2023/10/14 10:10:13;;;;;;;9.63;4.18;;;;;;;25.16;55.98;98776.75;5082344;28;20047;-46
2023/10/14 10:12:43;;;;;;;10.23;4.28;;;;;;;25.18;54.14;98782.63;5090282;28;20031;-45
2023/10/14 10:15:09;;;;;;;16.08;5.05;;;;;;;25.11;54.45;98771.47;5091506;28;20053;-46
2023/10/14 10:17:39;;;;;;;10.65;4.32;;;;;;;25.12;53.82;98775.75;5091465;28;20024;-46
2023/10/14 10:20:17;;;;;;;10.70;4.22;;;;;;;25.29;52.33;98770.66;5089956;28;20094;-46
2023/10/14 10:22:50;;;;;;;6.43;3.95;;;;;;;25.74;51.95;98772.03;5091389;28;20118;-46
2023/10/14 10:25:36;;;;;;;13.32;4.50;;;;;;;26.08;51.41;98769.75;5090189;28;20043;-46
2023/10/14 10:28:25;;;;;;;10.38;4.25;;;;;;;26.28;50.90;98773.91;5080342;28;20529;-46
2023/10/14 10:30:55;;;;;;;9.80;3.67;;;;;;;26.64;49.70;98770.44;5091390;28;20076;-46
2023/10/14 10:33:24;;;;;;;8.93;4.55;;;;;;;27.07;48.59;98774.56;5090071;28;20024;-46
2023/10/14 10:35:56;;;;;;;11.52;4.05;;;;;;;27.69;47.33;98771.09;5091570;28;20028;-46
2023/10/14 10:38:23;;;;;;;10.57;4.22;;;;;;;27.87;45.68;98772.00;5095161;28;20410;-46
2023/10/14 10:41:24;;;;;;;6.07;3.50;;;;;;;28.04;44.08;98771.22;5095070;28;20396;-46
2023/10/14 10:43:52;;;;;;;8.30;3.53;;;;;;;27.67;43.82;98767.94;5095040;28;20401;-46
2023/10/14 10:46:29;;;;;;;10.38;3.95;;;;;;;27.50;43.91;98760.53;5093599;28;20020;-46
2023/10/14 10:48:54;;;;;;;10.88;4.40;;;;;;;27.32;44.62;98767.75;5094820;28;20065;-46
2023/10/14 10:51:21;;;;;;;11.50;4.38;;;;;;;27.48;45.27;98754.66;5093564;28;20436;-46
2023/10/14 10:53:52;;;;;;;6.05;2.35;;;;;;;28.14;41.12;98767.44;5095121;28;20118;-46
2023/10/14 10:56:19;;;;;;;5.93;2.70;;;;;;;29.54;38.16;98755.44;5094763;28;20028;-46
2023/10/14 10:58:45;;;;;;;7.97;3.08;;;;;;;29.87;36.75;98752.91;5094767;28;20028;-46
2023/10/14 11:01:15;;;;;;;11.77;2.88;;;;;;;30.59;34.88;98744.81;5093671;28;20028;-46
2023/10/14 11:03:45;;;;;;;11.10;3.15;;;;;;;31.99;32.97;98746.78;5094707;28;20023;-46
2023/10/14 11:06:13;;;;;;;5.55;2.35;;;;;;;33.15;30.42;98742.72;5094528;28;20116;-46
2023/10/14 11:08:42;;;;;;;7.38;2.40;;;;;;;33.65;29.21;98740.47;5094565;28;20398;-47
2023/10/14 11:11:07;;;;;;;5.15;2.67;;;;;;;33.50;28.63;98742.78;5093459;28;20028;-46
2023/10/14 11:13:36;;;;;;;2.65;1.80;;;;;;;33.93;28.38;98738.38;5094751;28;20046;-46
2023/10/14 11:16:14;;;;;;;7.15;1.98;;;;;;;34.05;28.47;98731.22;5094407;28;20081;-46
2023/10/14 11:18:48;;;;;;;7.88;2.60;;;;;;;33.45;29.31;98729.47;5094219;28;20078;-46
2023/10/14 11:21:16;;;;;;;15.73;8.40;;;;;;;32.50;30.16;98727.34;5094203;28;20020;-46
2023/10/14 11:23:43;;;;;;;10.38;3.35;;;;;;;31.61;31.03;98734.38;5094297;28;20024;-46
2023/10/14 11:26:12;;;;;;;6.38;2.78;;;;;;;30.71;32.36;98725.13;5094157;28;20031;-46
2023/10/14 11:28:39;;;;;;;8.60;2.60;;;;;;;29.80;33.69;98719.38;5092910;28;20032;-46
2023/10/14 11:31:09;;;;;;;6.20;2.55;;;;;;;29.24;34.53;98731.06;5094016;28;20056;-46
2023/10/14 11:33:36;;;;;;;10.18;3.20;;;;;;;29.08;34.06;98717.25;5094421;28;20028;-46
2023/10/14 11:36:04;;;;;;;7.63;2.42;;;;;;;28.68;34.52;98724.78;5093872;28;20036;-46
2023/10/14 11:38:31;;;;;;;7.88;2.35;;;;;;;28.35;35.56;98719.81;5093946;28;20020;-46
2023/10/14 11:41:02;;;;;;;8.27;2.60;;;;;;;27.97;35.31;98715.06;5092638;28;20028;-46
2023/10/14 11:43:30;;;;;;;11.68;3.45;;;;;;;27.52;36.52;98717.91;5094007;28;20051;-46
2023/10/14 11:45:56;;;;;;;10.77;4.18;;;;;;;27.24;37.73;98714.59;5093837;28;20071;-47
2023/10/14 11:48:33;;;;;;;11.68;2.95;;;;;;;27.14;38.83;98712.16;5092732;28;20028;-46
2023/10/14 11:51:02;;;;;;;9.82;3.00;;;;;;;27.11;39.29;98705.47;5093800;28;20035;-46
2023/10/14 11:53:33;;;;;;;7.68;3.15;;;;;;;27.08;40.10;98704.22;5093648;28;20088;-46
2023/10/14 11:56:04;;;;;;;11.30;3.85;;;;;;;27.02;40.82;98700.03;5093669;28;20020;-46
2023/10/14 11:58:31;;;;;;;13.32;3.95;;;;;;;26.94;40.78;98700.00;5093735;28;20031;-46
2023/10/14 12:00:58;;;;;;;8.65;3.50;;;;;;;27.08;41.12;98695.31;5093413;28;20026;-46
2023/10/14 12:03:25;;;;;;;7.47;3.55;;;;;;;27.22;40.60;98693.31;5092178;28;20031;-46
2023/10/14 12:05:58;;;;;;;8.63;3.10;;;;;;;27.62;39.47;98698.72;5093609;28;20439;-46
2023/10/14 12:08:30;;;;;;;6.97;3.05;;;;;;;27.66;38.99;98702.41;5093228;28;20027;-46
2023/10/14 12:10:57;;;;;;;7.07;2.75;;;;;;;27.71;39.74;98704.16;5093328;28;20023;-46
2023/10/14 12:13:24;;;;;;;9.45;3.47;;;;;;;27.91;39.49;98699.31;5093491;28;20443;-46
2023/10/14 12:15:50;;;;;;;12.18;3.97;;;;;;;27.89;39.59;98688.84;5093249;28;20069;-46
2023/10/14 12:18:16;;;;;;;13.90;4.20;;;;;;;28.21;39.68;98684.91;5092834;28;20048;-46
2023/10/14 12:20:49;;;;;;;17.67;11.13;;;;;;;28.65;38.61;98687.59;5091736;28;20459;-46
2023/10/14 12:23:19;;;;;;;7.82;3.22;;;;;;;29.51;37.45;98688.47;5093127;28;20072;-46
2023/10/14 12:25:49;;;;;;;12.95;11.45;;;;;;;30.20;36.20;98678.34;5093072;28;20402;-46
2023/10/14 12:28:35;;;;;;;12.60;4.32;;;;;;;30.65;35.86;98683.09;5092940;28;20022;-46
2023/10/14 12:31:12;;;;;;;6.60;3.67;;;;;;;30.93;35.15;98679.78;5091927;28;20032;-46